Time;durP1;ratioP1;P1;durP2;ratioP2;P2;SDS_P1;SDS_P2;PMS_P1;PMS_P2;Temp;Humidity;BMP_temperature;BMP_pressure;BME280_temperature;BME280_humidity;BME280_pressure;Samples;Min_cycle;Max_cycle;Signal;HPM_P1;HPM_P2
2022/09/25 00:01:29;;;;;;;10.57;5.20;;;;;;;14.64;48.77;100054.09;5111616;28;20094;-45
2022/09/25 00:03:55;;;;;;;7.75;5.32;;;;;;;14.68;48.41;100040.25;5111758;28;20028;-45
2022/09/25 00:06:23;;;;;;;10.43;5.68;;;;;;;14.80;48.43;100039.28;5110998;28;20023;-44
2022/09/25 00:08:49;;;;;;;8.55;4.97;;;;;;;14.56;48.81;100032.13;5111060;28;20103;-43
2022/09/25 00:11:21;;;;;;;9.60;5.05;;;;;;;14.66;48.64;100032.47;5111423;28;20071;-44
2022/09/25 00:13:47;;;;;;;7.80;4.80;;;;;;;14.70;48.31;100036.34;5110903;28;20027;-45
2022/09/25 00:16:17;;;;;;;8.00;4.55;;;;;;;14.58;48.88;100040.78;5111324;28;20094;-44
2022/09/25 00:21:29;;;;;;;6.75;4.57;;;;;;;14.55;48.51;100035.84;5112035;28;20447;-43
2022/09/25 00:23:59;;;;;;;6.65;4.35;;;;;;;14.39;49.16;100039.91;5111469;28;20032;-43
2022/09/25 00:26:26;;;;;;;;;;;;;;;14.66;48.78;100037.81;5111377;28;20046;-44
2022/09/25 00:28:52;;;;;;;8.32;4.97;;;;;;;14.49;48.63;100034.88;5110722;28;20228;-43
2022/09/25 00:31:23;;;;;;;10.88;4.72;;;;;;;14.53;49.17;100045.97;5111309;28;20027;-44
2022/09/25 00:33:50;;;;;;;9.40;5.20;;;;;;;14.43;49.00;100044.63;5110882;28;20035;-44
2022/09/25 00:36:15;;;;;;;8.98;5.45;;;;;;;14.43;48.70;100039.25;5110933;28;20031;-44
2022/09/25 00:38:42;;;;;;;9.35;5.35;;;;;;;14.34;49.12;100039.78;5110919;28;20031;-43
2022/09/25 00:41:08;;;;;;;10.95;5.90;;;;;;;14.24;49.24;100032.22;5111288;28;20028;-44
2022/09/25 00:43:45;;;;;;;7.68;5.30;;;;;;;14.23;49.47;100035.94;5110772;28;20411;-44
2022/09/25 00:46:17;;;;;;;9.10;5.30;;;;;;;14.26;49.73;100032.84;5111170;28;20099;-43
2022/09/25 00:48:52;;;;;;;9.43;6.07;;;;;;;14.37;49.54;100034.78;5110384;28;20398;-43
2022/09/25 00:51:28;;;;;;;10.73;6.30;;;;;;;14.42;49.25;100034.94;5111175;28;20035;-43
2022/09/25 00:54:00;;;;;;;13.25;7.70;;;;;;;14.41;49.10;100030.63;5110979;28;20019;-44
2022/09/25 00:56:29;;;;;;;14.57;7.60;;;;;;;14.37;49.16;100021.38;5111062;28;20028;-43
2022/09/25 00:58:54;;;;;;;14.23;7.73;;;;;;;14.30;49.58;100028.69;5109806;28;20418;-42
2022/09/25 01:01:21;;;;;;;15.55;8.55;;;;;;;14.39;49.48;100026.53;5111090;28;20261;-44
2022/09/25 01:03:47;;;;;;;18.02;9.63;;;;;;;14.22;49.64;100024.44;5111092;28;20071;-44
2022/09/25 01:06:14;;;;;;;16.33;9.48;;;;;;;14.18;49.62;100015.19;5111039;28;20660;-42
2022/09/25 01:08:40;;;;;;;18.20;9.40;;;;;;;13.98;50.34;100015.38;5110338;28;20367;-44
2022/09/25 01:11:06;;;;;;;18.10;10.05;;;;;;;13.81;50.64;100011.63;5110780;28;20019;-42
2022/09/25 01:13:32;;;;;;;20.02;10.18;;;;;;;14.10;50.34;100022.69;5110935;28;20035;-44
2022/09/25 01:16:07;;;;;;;18.05;10.05;;;;;;;14.10;50.33;100031.53;5110553;28;20462;-37
2022/09/25 01:18:50;;;;;;;17.33;9.25;;;;;;;14.06;50.02;100023.13;5110343;28;20042;-37
2022/09/25 01:21:28;;;;;;;17.60;8.57;;;;;;;14.18;49.76;100025.88;5110609;28;20046;-37
2022/09/25 01:24:12;;;;;;;18.40;9.77;;;;;;;14.10;50.23;100028.03;5111101;28;20030;-36
2022/09/25 01:27:23;;;;;;;18.95;10.15;;;;;;;14.13;50.09;100032.97;5114589;28;20032;-41
2022/09/25 01:30:00;;;;;;;19.77;10.43;;;;;;;13.99;50.71;100021.53;5114241;28;20035;-43
2022/09/25 01:32:31;;;;;;;17.17;9.93;;;;;;;14.07;49.87;100015.94;5114836;28;20076;-45
2022/09/25 01:35:02;;;;;;;17.25;8.95;;;;;;;13.99;50.75;100017.03;5114543;28;20028;-41
2022/09/25 01:37:31;;;;;;;17.95;9.32;;;;;;;13.91;50.75;100013.81;5114227;28;20032;-42
2022/09/25 01:40:15;;;;;;;13.77;8.48;;;;;;;13.76;51.11;100019.47;5114593;28;20031;-42
2022/09/25 01:42:50;;;;;;;15.85;9.00;;;;;;;13.68;51.21;100023.22;5114081;28;20066;-42
2022/09/25 01:45:22;;;;;;;15.50;8.82;;;;;;;13.83;51.25;100014.88;5114504;28;20088;-43
2022/09/25 01:47:51;;;;;;;16.08;9.18;;;;;;;13.90;51.33;100010.31;5114169;28;20028;-43
2022/09/25 01:50:33;;;;;;;17.70;8.48;;;;;;;13.80;51.56;100023.34;5114286;28;20160;-46
2022/09/25 01:53:03;;;;;;;14.60;7.75;;;;;;;13.85;50.94;100026.19;5113918;28;20043;-43
2022/09/25 01:55:39;;;;;;;17.10;7.45;;;;;;;13.76;50.99;100027.50;5113750;28;20019;-43
2022/09/25 01:58:16;;;;;;;12.73;6.95;;;;;;;13.67;50.81;100030.44;5113627;28;20110;-43
2022/09/25 02:00:49;;;;;;;10.45;7.22;;;;;;;13.55;51.59;100031.34;5114132;28;20055;-43
2022/09/25 02:03:24;;;;;;;13.73;7.15;;;;;;;13.58;51.68;100029.06;5114011;27;20127;-43
2022/09/25 02:06:00;;;;;;;10.80;7.25;;;;;;;13.60;51.41;100035.00;5113769;28;20389;-43
2022/09/25 02:08:31;;;;;;;11.82;7.00;;;;;;;13.33;51.51;100007.63;5113617;28;20452;-43
2022/09/25 02:11:01;;;;;;;11.85;7.55;;;;;;;13.54;51.20;100030.53;5113952;27;20066;-44
2022/09/25 02:13:33;;;;;;;12.68;7.10;;;;;;;13.43;51.63;100034.69;5113272;28;20479;-43
2022/09/25 02:16:04;;;;;;;13.38;7.07;;;;;;;13.37;51.63;100034.75;5113885;28;20023;-43
2022/09/25 02:21:33;;;;;;;12.50;7.03;;;;;;;13.47;51.78;100035.09;5113661;28;20063;-42
2022/09/25 02:24:17;;;;;;;11.52;6.95;;;;;;;13.48;51.76;100040.22;5111982;28;20077;-44
2022/09/25 02:26:42;;;;;;;11.48;7.30;;;;;;;13.48;52.04;100045.56;5113843;28;20052;-42
2022/09/25 02:29:08;;;;;;;10.55;6.93;;;;;;;13.51;51.75;100046.19;5113212;28;20051;-44
2022/09/25 02:31:39;;;;;;;10.32;6.57;;;;;;;13.42;51.70;100042.94;5113709;28;20024;-43
2022/09/25 02:34:05;;;;;;;9.48;6.53;;;;;;;13.32;52.07;100045.25;5111886;28;20028;-43
2022/09/25 02:36:32;;;;;;;10.23;6.25;;;;;;;12.97;52.80;100033.06;5112317;27;20051;-43
2022/09/25 02:38:59;;;;;;;9.77;6.78;;;;;;;13.19;52.32;100033.56;5112897;28;20033;-45
2022/09/25 02:41:40;;;;;;;8.90;6.40;;;;;;;13.12;53.00;100035.47;5113245;28;20112;-44
2022/09/25 02:44:23;;;;;;;;;;;;;;;13.54;51.88;100041.22;5113664;28;20036;-43
2022/09/25 02:47:20;;;;;;;10.32;6.47;;;;;;;13.46;51.79;100038.78;5113256;28;19955;-43
2022/09/25 02:49:54;;;;;;;10.40;6.00;;;;;;;13.28;52.38;100034.94;5113179;28;20084;-45
2022/09/25 02:52:31;;;;;;;9.90;5.93;;;;;;;13.27;52.15;100032.53;5113407;28;20042;-43
2022/09/25 02:55:14;;;;;;;9.65;5.40;;;;;;;13.34;51.87;100038.66;5112862;27;20032;-46
2022/09/25 02:57:57;;;;;;;6.47;5.40;;;;;;;13.19;52.26;100036.22;5112721;28;20034;-43
2022/09/25 03:00:23;;;;;;;7.35;5.10;;;;;;;13.18;51.70;100033.78;5113037;28;20110;-43
2022/09/25 03:02:53;;;;;;;9.68;5.20;;;;;;;13.10;51.94;100045.56;5112805;28;20107;-42
2022/09/25 03:05:20;;;;;;;7.53;5.38;;;;;;;13.03;52.52;100048.25;5112652;28;20024;-42
2022/09/25 03:10:35;;;;;;;8.90;6.03;;;;;;;13.06;52.54;100044.31;5112882;28;20068;-43
2022/09/25 03:13:17;;;;;;;9.02;5.75;;;;;;;12.99;52.74;100044.34;5112674;28;20019;-43
2022/09/25 03:15:47;;;;;;;7.45;5.47;;;;;;;12.91;52.97;100048.09;5112699;28;20095;-44
2022/09/25 03:18:13;;;;;;;9.18;5.45;;;;;;;12.79;53.78;100044.41;5112286;28;20027;-43
2022/09/25 03:20:39;;;;;;;10.50;5.90;;;;;;;12.82;53.59;100052.00;5112372;28;20058;-43
2022/09/25 03:23:05;;;;;;;9.32;6.10;;;;;;;12.59;53.80;100043.66;5112377;28;20124;-43
2022/09/25 03:25:31;;;;;;;9.23;6.13;;;;;;;12.83;53.28;100047.47;5111765;28;20031;-42
2022/09/25 03:27:56;;;;;;;8.77;6.00;;;;;;;12.95;53.54;100047.66;5111634;28;20027;-43
2022/09/25 03:30:23;;;;;;;8.57;5.63;;;;;;;12.77;53.74;100048.34;5112304;28;20023;-43
2022/09/25 03:32:48;;;;;;;8.98;5.90;;;;;;;12.72;53.46;100040.97;5112070;28;20023;-43
2022/09/25 03:35:14;;;;;;;11.35;6.25;;;;;;;12.78;53.51;100044.66;5112181;28;20035;-43
2022/09/25 03:37:40;;;;;;;9.82;6.05;;;;;;;12.73;53.40;100036.44;5111905;28;20035;-45
2022/09/25 03:40:06;;;;;;;10.88;6.38;;;;;;;12.66;54.13;100026.59;5112100;28;20030;-44
2022/09/25 03:42:31;;;;;;;10.75;6.18;;;;;;;12.34;54.55;100025.66;5111808;28;20031;-43
2022/09/25 03:44:57;;;;;;;10.90;6.47;;;;;;;12.39;54.97;100017.00;5111869;28;20031;-43
2022/09/25 03:47:22;;;;;;;11.32;7.05;;;;;;;12.59;54.59;100027.66;5111022;28;20031;-43
2022/09/25 03:49:47;;;;;;;11.32;6.30;;;;;;;12.62;53.88;100030.72;5111163;28;20031;-43
2022/09/25 03:52:13;;;;;;;9.88;6.80;;;;;;;12.45;54.01;100021.50;5111764;28;20039;-43
2022/09/25 03:54:39;;;;;;;8.27;6.07;;;;;;;12.41;54.18;100023.78;5112021;28;20110;-44
2022/09/25 03:57:05;;;;;;;12.30;5.90;;;;;;;12.25;54.20;100021.56;5111712;28;20031;-44
2022/09/25 03:59:30;;;;;;;10.57;6.28;;;;;;;12.33;55.09;100024.00;5111322;28;20115;-44
2022/09/25 04:01:57;;;;;;;9.32;5.82;;;;;;;12.35;55.10;100027.28;5111530;28;20038;-42
2022/09/25 04:04:22;;;;;;;9.05;5.85;;;;;;;12.50;54.36;100033.19;5111220;28;20034;-43
2022/09/25 04:06:48;;;;;;;7.10;5.90;;;;;;;12.62;53.93;100028.06;5110555;28;20110;-43
2022/09/25 04:09:13;;;;;;;8.77;6.38;;;;;;;12.67;53.18;100024.75;5111222;28;20027;-42
2022/09/25 04:11:38;;;;;;;13.10;7.85;;;;;;;12.41;53.72;100025.63;5110932;28;20498;-42
2022/09/25 04:14:04;;;;;;;12.57;6.80;;;;;;;12.42;53.34;100036.09;5111378;28;20047;-41
2022/09/25 04:16:30;;;;;;;14.45;9.80;;;;;;;12.39;53.95;100036.50;5111386;28;20343;-42
2022/09/25 04:18:56;;;;;;;11.45;7.68;;;;;;;12.28;54.59;100032.63;5111245;28;20134;-41
2022/09/25 04:21:21;;;;;;;14.30;7.43;;;;;;;12.48;53.44;100032.59;5110886;28;20027;-41
2022/09/25 04:24:47;;;;;;;12.15;6.72;;;;;;;12.45;54.29;100027.69;5111268;28;20479;-43
2022/09/25 04:26:33;;;;;;;9.57;6.28;;;;;;;12.69;53.40;100025.34;5110693;28;20036;-42
2022/09/25 04:29:02;;;;;;;7.70;5.95;;;;;;;12.64;53.55;100019.81;5111237;28;20023;-42
2022/09/25 04:31:28;;;;;;;10.65;6.10;;;;;;;12.66;53.42;100031.09;5109810;28;20104;-42
2022/09/25 04:33:54;;;;;;;9.55;6.38;;;;;;;12.90;53.20;100040.28;5111346;28;20028;-42
2022/09/25 04:36:19;;;;;;;10.50;6.20;;;;;;;13.05;53.17;100046.16;5111549;28;20386;-43
2022/09/25 04:38:46;;;;;;;8.73;6.07;;;;;;;13.35;52.82;100042.16;5111243;28;20412;-45
2022/09/25 04:41:15;;;;;;;11.93;6.55;;;;;;;13.53;52.44;100036.91;5111278;28;20152;-42
2022/09/25 04:43:42;;;;;;;9.30;6.10;;;;;;;13.79;51.15;100032.41;5110956;28;20024;-42
2022/09/25 04:46:09;;;;;;;13.63;6.30;;;;;;;13.99;50.36;100038.44;5110874;28;20039;-42
2022/09/25 04:48:35;;;;;;;9.20;6.43;;;;;;;14.33;49.69;100043.47;5110720;28;20106;-43
2022/09/25 04:51:00;;;;;;;12.43;6.35;;;;;;;14.61;49.35;100043.03;5110482;28;20067;-42
2022/09/25 04:53:28;;;;;;;10.25;5.82;;;;;;;14.78;49.23;100036.03;5110637;28;20034;-44
2022/09/25 04:56:00;;;;;;;11.02;5.85;;;;;;;15.19;49.05;100057.78;5111052;28;20019;-42
2022/09/25 04:58:25;;;;;;;11.05;5.82;;;;;;;15.55;48.16;100058.75;5111025;28;20046;-42
2022/09/25 05:00:51;;;;;;;10.55;6.15;;;;;;;15.85;47.38;100065.97;5115212;28;20398;-42
2022/09/25 05:03:16;;;;;;;10.88;6.50;;;;;;;16.12;46.26;100061.81;5114937;28;20399;-43
2022/09/25 05:05:42;;;;;;;8.55;6.25;;;;;;;16.34;44.76;100059.38;5115452;28;20034;-43
2022/09/25 05:08:08;;;;;;;8.55;5.93;;;;;;;16.60;45.06;100070.69;5115030;28;20028;-42
2022/09/25 05:10:34;;;;;;;15.07;5.95;;;;;;;16.83;44.63;100072.56;5114772;28;20031;-42
2022/09/25 05:13:02;;;;;;;11.75;5.65;;;;;;;17.04;44.01;100068.44;5115025;28;20087;-42
2022/09/25 05:15:30;;;;;;;9.20;5.10;;;;;;;17.26;43.90;100062.38;5114596;28;20024;-43
2022/09/25 05:18:00;;;;;;;8.30;4.60;;;;;;;17.62;43.43;100076.50;5114580;28;20047;-43
2022/09/25 05:20:25;;;;;;;4.82;4.15;;;;;;;17.89;41.71;100071.34;5114251;28;20436;-44
2022/09/25 05:22:58;;;;;;;8.15;4.28;;;;;;;18.21;40.84;100076.19;5114939;28;20027;-44
2022/09/25 05:25:25;;;;;;;7.88;5.20;;;;;;;18.58;39.44;100079.13;5114715;28;20050;-46
2022/09/25 05:27:54;;;;;;;5.72;4.65;;;;;;;19.00;38.21;100086.75;5114529;28;20102;-44
2022/09/25 05:30:20;;;;;;;;;;;;;;;19.39;37.47;100080.44;5108743;28;20181;-42
2022/09/25 05:32:49;;;;;;;8.13;4.57;;;;;;;19.56;37.15;100091.16;5105639;28;20422;-41
2022/09/25 05:35:21;;;;;;;8.40;4.32;;;;;;;19.63;36.31;100089.03;5099692;28;20189;-42
2022/09/25 05:37:46;;;;;;;6.68;4.35;;;;;;;19.64;36.29;100091.47;5093983;28;20020;-42
2022/09/25 05:40:14;;;;;;;4.30;3.55;;;;;;;20.20;35.08;100087.66;5093449;28;20396;-43
2022/09/25 05:42:40;;;;;;;6.25;4.03;;;;;;;20.59;34.32;100092.81;5092134;28;20038;-42
2022/09/25 05:45:06;;;;;;;5.10;3.70;;;;;;;20.36;34.46;100091.31;5092489;28;20032;-41
2022/09/25 05:47:31;;;;;;;4.22;3.40;;;;;;;20.45;34.45;100097.88;5091659;28;20022;-41
2022/09/25 05:49:57;;;;;;;6.95;3.45;;;;;;;20.83;33.81;100099.47;5105369;28;20038;-41
2022/09/25 05:52:22;;;;;;;7.50;3.45;;;;;;;21.25;33.21;100109.38;5112700;28;20043;-40
2022/09/25 05:54:48;;;;;;;4.15;3.20;;;;;;;21.28;33.54;100102.63;5113024;28;20080;-42
2022/09/25 05:57:14;;;;;;;7.32;3.70;;;;;;;21.65;32.79;100104.38;5112543;28;20031;-42
2022/09/25 05:59:39;;;;;;;5.07;3.40;;;;;;;22.16;32.00;100106.28;5111129;28;20475;-43
2022/09/25 06:02:05;;;;;;;5.10;3.30;;;;;;;22.56;31.18;100094.63;5112648;28;20031;-42
2022/09/25 06:04:30;;;;;;;7.13;3.35;;;;;;;22.52;30.78;100087.31;5112953;28;20104;-43
2022/09/25 06:06:56;;;;;;;5.50;3.00;;;;;;;22.65;30.56;100084.03;5112782;28;20027;-43
2022/09/25 06:09:21;;;;;;;5.20;2.90;;;;;;;22.89;30.39;100088.84;5112779;28;20046;-41
2022/09/25 06:11:46;;;;;;;4.53;2.90;;;;;;;23.37;29.96;100087.28;5111607;28;20371;-41
2022/09/25 06:14:15;;;;;;;3.10;2.75;;;;;;;23.37;29.44;100087.28;5112436;28;20024;-41
2022/09/25 06:16:40;;;;;;;3.75;3.03;;;;;;;23.00;30.02;100077.69;5113206;28;20023;-44
2022/09/25 06:19:06;;;;;;;6.47;3.15;;;;;;;23.89;28.87;100084.25;5112241;28;20551;-43
2022/09/25 06:21:31;;;;;;;6.25;3.15;;;;;;;24.03;28.52;100077.09;5112857;28;20028;-43
2022/09/25 06:23:57;;;;;;;7.82;3.95;;;;;;;24.52;27.97;100073.38;5112803;28;20103;-43
2022/09/25 06:26:24;;;;;;;7.38;3.38;;;;;;;24.82;27.66;100082.28;5112250;28;20027;-43
2022/09/25 06:28:49;;;;;;;7.10;4.10;;;;;;;24.83;27.51;100091.25;5112353;28;20027;-43
2022/09/25 06:31:14;;;;;;;5.40;3.60;;;;;;;25.14;26.94;100081.63;5112898;28;20027;-42
2022/09/25 06:33:40;;;;;;;6.35;4.13;;;;;;;24.95;27.21;100078.84;5112722;28;20058;-43
2022/09/25 06:36:06;;;;;;;8.02;4.13;;;;;;;25.34;26.73;100068.84;5112515;27;20479;-45
2022/09/25 06:38:34;;;;;;;6.05;3.63;;;;;;;24.92;27.42;100074.00;5112184;28;20028;-44
2022/09/25 06:41:00;;;;;;;7.10;4.60;;;;;;;24.97;27.40;100068.50;5112210;28;20099;-44
2022/09/25 06:43:26;;;;;;;6.03;4.40;;;;;;;25.55;25.96;100072.06;5112384;28;20399;-43
2022/09/25 06:45:52;;;;;;;6.00;3.70;;;;;;;25.72;25.64;100072.38;5112280;28;20031;-43
2022/09/25 06:48:20;;;;;;;7.82;4.20;;;;;;;24.89;27.10;100073.78;5111951;28;20026;-42
2022/09/25 06:50:52;;;;;;;7.47;4.30;;;;;;;25.18;26.02;100065.50;5111544;28;20035;-42
2022/09/25 06:53:19;;;;;;;11.00;6.72;;;;;;;25.37;26.07;100068.28;5112341;28;20276;-41
2022/09/25 06:55:45;;;;;;;6.43;3.90;;;;;;;25.87;25.54;100073.22;5112319;28;20092;-42
2022/09/25 06:58:19;;;;;;;6.57;3.70;;;;;;;25.90;25.44;100070.72;5092658;28;20032;-42
2022/09/25 07:00:50;;;;;;;6.75;3.70;;;;;;;26.20;25.21;100068.63;5098742;28;20034;-43
2022/09/25 07:06:01;;;;;;;5.70;3.60;;;;;;;26.05;27.55;100063.44;5108586;28;20042;-42
2022/09/25 07:08:27;;;;;;;9.63;5.13;;;;;;;25.71;25.80;100057.13;5091379;28;20024;-42
2022/09/25 07:10:54;;;;;;;6.95;3.78;;;;;;;25.21;25.86;100059.47;5099313;28;20020;-42
2022/09/25 07:13:26;;;;;;;6.18;4.35;;;;;;;24.89;26.59;100074.59;5111837;28;20023;-42
2022/09/25 07:15:52;;;;;;;5.63;3.83;;;;;;;25.14;26.51;100070.72;5111815;28;20023;-45
2022/09/25 07:18:18;;;;;;;7.82;3.40;;;;;;;25.04;27.12;100065.41;5111902;28;20028;-43
2022/09/25 07:20:46;;;;;;;9.18;4.95;;;;;;;26.13;26.42;100073.66;5098723;28;20056;-44
2022/09/25 07:23:13;;;;;;;4.88;3.92;;;;;;;26.20;25.85;100073.25;5090889;28;20494;-43
2022/09/25 07:25:39;;;;;;;7.57;3.85;;;;;;;26.60;24.88;100079.91;5089269;28;20040;-45
2022/09/25 07:28:06;;;;;;;8.13;3.70;;;;;;;27.05;24.55;100074.63;5091089;28;20052;-43
2022/09/25 07:30:32;;;;;;;6.28;3.97;;;;;;;26.53;24.67;100077.53;5091127;28;20322;-42
2022/09/25 07:32:57;;;;;;;6.03;4.25;;;;;;;26.83;24.78;100080.03;5090610;28;20456;-43
2022/09/25 07:35:23;;;;;;;6.10;4.40;;;;;;;26.78;25.06;100077.38;5091208;28;20016;-44
2022/09/25 07:37:48;;;;;;;8.48;5.10;;;;;;;26.75;24.86;100080.72;5090948;28;20115;-42
2022/09/25 07:40:14;;;;;;;96.07;71.50;;;;;;;26.70;24.75;100076.97;5096788;28;20684;-45
2022/09/25 07:42:40;;;;;;;8.43;6.70;;;;;;;26.64;25.00;100074.66;5108598;28;20059;-42
2022/09/25 07:45:06;;;;;;;5.95;4.40;;;;;;;26.87;24.74;100076.38;5107529;28;20031;-43
2022/09/25 07:47:32;;;;;;;5.97;3.80;;;;;;;26.23;25.13;100080.84;5107006;28;20084;-44
2022/09/25 07:49:58;;;;;;;6.60;3.90;;;;;;;26.42;25.37;100072.59;5110592;28;20027;-43
2022/09/25 07:52:23;;;;;;;7.70;4.05;;;;;;;26.80;24.99;100070.50;5107943;28;20490;-43
2022/09/25 07:54:49;;;;;;;4.80;3.88;;;;;;;26.97;25.20;100060.88;5108653;28;20403;-44
2022/09/25 07:57:15;;;;;;;6.15;3.67;;;;;;;27.12;25.69;100068.75;5110591;28;20023;-43
2022/09/25 07:59:40;;;;;;;4.97;3.70;;;;;;;27.18;24.93;100053.88;5110573;28;20055;-44
2022/09/25 08:02:06;;;;;;;4.90;3.80;;;;;;;27.22;24.22;100054.84;5111100;28;20046;-42
2022/09/25 08:04:31;;;;;;;5.50;4.00;;;;;;;26.48;25.73;100046.81;5110372;28;20110;-42
2022/09/25 08:06:58;;;;;;;6.78;4.35;;;;;;;27.06;24.94;100054.41;5110886;28;20019;-45
2022/09/25 08:09:24;;;;;;;5.47;4.00;;;;;;;26.78;25.26;100050.09;5110007;28;20043;-44
2022/09/25 08:11:49;;;;;;;6.18;3.70;;;;;;;26.40;25.71;100048.31;5110561;28;20019;-44
2022/09/25 08:14:15;;;;;;;5.05;3.72;;;;;;;27.09;24.79;100042.88;5110840;28;20028;-45
2022/09/25 08:16:41;;;;;;;5.72;3.67;;;;;;;26.37;25.57;100039.94;5110976;28;20012;-43
2022/09/25 08:19:07;;;;;;;5.95;3.53;;;;;;;27.20;24.58;100034.44;5110142;28;20051;-43
2022/09/25 08:21:33;;;;;;;7.47;4.70;;;;;;;26.83;25.40;100045.34;5109777;28;20433;-43
2022/09/25 08:23:59;;;;;;;4.05;3.65;;;;;;;27.48;24.27;100040.66;5110444;28;20038;-44
2022/09/25 08:26:26;;;;;;;5.07;3.92;;;;;;;27.82;24.02;100037.38;5110099;28;20521;-42
2022/09/25 08:28:52;;;;;;;5.88;4.13;;;;;;;28.08;23.87;100037.56;5109990;28;20482;-42
2022/09/25 08:31:18;;;;;;;6.32;3.60;;;;;;;28.65;23.22;100041.50;5110721;28;20024;-42
2022/09/25 08:33:48;;;;;;;4.68;3.90;;;;;;;28.27;23.90;100033.78;5109193;28;20078;-43
2022/09/25 08:36:15;;;;;;;6.30;3.80;;;;;;;28.14;26.83;100031.94;5108940;28;20020;-41
2022/09/25 08:38:40;;;;;;;5.38;3.45;;;;;;;28.70;25.07;100024.16;5109584;28;20042;-43
2022/09/25 08:41:10;;;;;;;6.35;4.10;;;;;;;28.82;25.06;100029.81;5110225;28;20498;-44
2022/09/25 08:43:41;;;;;;;6.68;3.97;;;;;;;29.11;22.89;100020.16;5110983;28;20034;-43
2022/09/25 08:49:11;;;;;;;7.03;3.70;;;;;;;28.03;23.30;100013.06;5101247;28;20042;-42
2022/09/25 08:51:44;;;;;;;4.07;3.42;;;;;;;27.73;23.86;100009.16;5097984;28;20285;-42
2022/09/25 08:54:24;;;;;;;5.30;3.30;;;;;;;27.64;23.62;100000.91;5098565;28;20035;-43
2022/09/25 08:56:54;;;;;;;3.92;3.40;;;;;;;27.77;23.89;100009.34;5108708;28;20190;-46
2022/09/25 08:59:25;;;;;;;5.20;3.55;;;;;;;27.16;24.50;100004.19;5110284;28;20031;-44
2022/09/25 09:01:55;;;;;;;7.63;3.53;;;;;;;27.42;24.22;99995.47;5110831;28;20135;-42
2022/09/25 09:04:57;;;;;;;6.45;3.90;;;;;;;27.71;24.09;99986.00;5110701;28;20106;-43
2022/09/25 09:07:36;;;;;;;3.78;2.88;;;;;;;27.20;23.70;99977.09;5067604;28;20067;-43
2022/09/25 09:10:07;;;;;;;3.60;2.85;;;;;;;27.29;23.93;100000.66;5110444;28;20046;-45
2022/09/25 09:12:51;;;;;;;3.60;2.90;;;;;;;27.33;23.54;100000.84;5110629;28;20027;-43
2022/09/25 09:15:35;;;;;;;6.25;3.10;;;;;;;27.23;24.13;100001.06;5105827;28;20020;-44
2022/09/25 09:18:14;;;;;;;3.55;3.00;;;;;;;27.50;23.45;100003.69;5090433;28;20032;-42
2022/09/25 09:20:50;;;;;;;6.00;3.30;;;;;;;27.73;24.98;100000.16;5089841;28;20055;-44
2022/09/25 09:23:19;;;;;;;3.40;2.97;;;;;;;28.23;23.89;99986.28;5090477;28;20702;-42
2022/09/25 09:25:52;;;;;;;3.70;2.88;;;;;;;28.21;22.88;99985.78;5090223;28;20111;-43
2022/09/25 09:28:23;;;;;;;4.90;3.20;;;;;;;28.12;23.66;99988.50;5090264;28;20067;-44
2022/09/25 09:31:01;;;;;;;3.90;2.97;;;;;;;28.11;23.76;99975.94;5089892;28;20030;-44
2022/09/25 09:33:44;;;;;;;4.60;2.90;;;;;;;26.66;24.19;99976.91;5098790;28;20027;-43
2022/09/25 09:37:02;;;;;;;3.80;2.78;;;;;;;27.22;24.71;99958.47;5105402;28;20024;-44
2022/09/25 09:40:02;;;;;;;4.45;3.00;;;;;;;26.62;24.64;99957.63;5035026;28;20088;-43
2022/09/25 09:42:42;;;;;;;3.97;2.90;;;;;;;26.76;25.14;99941.22;5090275;28;20144;-41
2022/09/25 09:45:35;;;;;;;3.13;2.80;;;;;;;26.38;24.66;99943.38;5090942;28;20039;-45
2022/09/25 09:48:29;;;;;;;3.95;3.40;;;;;;;25.30;26.27;99939.81;5102813;28;20019;-42
2022/09/25 09:51:04;;;;;;;4.90;3.30;;;;;;;25.93;25.55;99933.88;5099960;28;20050;-42
2022/09/25 09:53:41;;;;;;;7.32;3.08;;;;;;;25.77;26.04;99920.78;5119339;27;20038;-46
2022/09/25 09:56:13;;;;;;;4.10;2.85;;;;;;;26.34;25.73;99938.50;5122845;27;20027;-43
2022/09/25 09:59:11;;;;;;;4.00;2.70;;;;;;;25.74;25.41;99933.06;5126707;27;20060;-43
2022/09/25 10:01:40;;;;;;;4.70;2.80;;;;;;;24.88;26.14;99928.72;5114274;27;20039;-42
2022/09/25 10:04:25;;;;;;;4.78;2.92;;;;;;;25.56;25.33;99921.94;5113247;28;20035;-44
2022/09/25 10:06:56;;;;;;;3.33;2.90;;;;;;;25.74;25.75;99925.72;5113197;28;20071;-42
2022/09/25 10:09:24;;;;;;;4.18;3.10;;;;;;;25.70;24.83;99919.28;5113041;28;20025;-46
2022/09/25 10:12:02;;;;;;;4.85;3.67;;;;;;;26.08;25.75;99924.59;5110720;28;20020;-42
2022/09/25 10:14:37;;;;;;;6.45;2.97;;;;;;;26.46;25.16;99923.53;5112455;28;20020;-43
2022/09/25 10:17:04;;;;;;;3.40;2.90;;;;;;;26.39;24.56;99921.25;5113433;28;20142;-45
2022/09/25 10:19:41;;;;;;;4.55;2.70;;;;;;;26.20;25.04;99926.81;5109952;28;20047;-43
2022/09/25 10:22:29;;;;;;;3.53;2.80;;;;;;;27.08;24.92;99912.09;5113502;28;20135;-43
2022/09/25 10:24:57;;;;;;;4.03;2.95;;;;;;;27.45;24.20;99907.38;5109432;28;20108;-44
2022/09/25 10:27:26;;;;;;;4.90;3.10;;;;;;;27.24;24.28;99902.38;5108979;27;20144;-43
2022/09/25 10:30:06;;;;;;;3.35;2.70;;;;;;;27.26;24.16;99888.47;5112445;28;20024;-43
2022/09/25 10:32:40;;;;;;;5.25;3.00;;;;;;;27.24;24.42;99896.94;5110831;28;20019;-42
2022/09/25 10:35:13;;;;;;;5.32;2.78;;;;;;;27.13;24.73;99884.66;5112649;27;20101;-42
2022/09/25 10:37:39;;;;;;;5.43;2.70;;;;;;;27.35;23.93;99888.53;5112675;28;20522;-44
2022/09/25 10:40:21;;;;;;;3.20;2.55;;;;;;;26.20;24.68;99883.16;5112359;28;20020;-44
2022/09/25 10:42:47;;;;;;;5.55;3.20;;;;;;;27.00;24.38;99875.41;5112444;28;20012;-44
2022/09/25 10:45:21;;;;;;;3.17;2.88;;;;;;;27.19;24.03;99880.69;5113040;28;20022;-46
2022/09/25 10:50:33;;;;;;;3.35;2.65;;;;;;;27.25;24.12;99874.00;5113306;28;20031;-41
2022/09/25 10:53:04;;;;;;;4.68;3.83;;;;;;;26.14;25.11;99868.84;5112984;28;20423;-44
2022/09/25 10:55:33;;;;;;;4.05;2.80;;;;;;;25.44;26.17;99875.31;5110179;28;20028;-44
2022/09/25 10:58:13;;;;;;;;;;;;;;;25.89;26.40;99874.75;5111982;28;20383;-43
2022/09/25 11:00:53;;;;;;;4.45;2.88;;;;;;;25.16;27.24;99872.47;5112311;28;20032;-44
2022/09/25 11:03:24;;;;;;;4.47;2.90;;;;;;;26.06;26.25;99864.06;5112266;28;20016;-43
2022/09/25 11:05:57;;;;;;;4.53;2.80;;;;;;;26.29;25.64;99865.00;5111772;28;20051;-44
2022/09/25 11:08:28;;;;;;;4.80;2.80;;;;;;;24.91;26.67;99857.38;5112289;28;20022;-45
2022/09/25 11:10:57;;;;;;;2.92;2.60;;;;;;;25.32;27.44;99851.28;5112112;28;20023;-42
2022/09/25 11:13:32;;;;;;;2.88;2.50;;;;;;;26.34;26.58;99845.75;5111753;28;20015;-43
2022/09/25 11:16:00;;;;;;;4.25;2.58;;;;;;;26.66;25.59;99841.28;5111607;28;20016;-43
2022/09/25 11:18:38;;;;;;;4.22;3.00;;;;;;;25.68;27.13;99839.75;5111186;28;20403;-43
2022/09/25 11:21:15;;;;;;;5.20;2.90;;;;;;;26.47;26.24;99830.47;5111634;28;20054;-48
2022/09/25 11:23:54;;;;;;;3.72;2.72;;;;;;;26.58;25.67;99836.53;5111837;28;20169;-46
2022/09/25 11:26:26;;;;;;;3.17;2.70;;;;;;;26.53;25.44;99831.97;5111521;28;20043;-42
2022/09/25 11:29:00;;;;;;;4.00;2.65;;;;;;;27.33;24.81;99828.72;5111078;28;20023;-43
2022/09/25 11:31:47;;;;;;;4.30;2.95;;;;;;;28.12;24.13;99831.78;5111801;28;20161;-43
2022/09/25 11:34:22;;;;;;;3.30;2.80;;;;;;;28.16;23.44;99822.63;5111832;28;20030;-43
2022/09/25 11:37:05;;;;;;;3.83;3.00;;;;;;;28.53;23.40;99823.16;5111402;28;20016;-43
2022/09/25 11:42:54;;;;;;;3.33;2.80;;;;;;;28.40;23.52;99802.19;5111528;28;20069;-44
2022/09/25 11:45:46;;;;;;;3.42;3.00;;;;;;;28.13;23.29;99812.31;5111817;28;20027;-44
2022/09/25 11:48:59;;;;;;;5.90;3.20;;;;;;;28.49;23.61;99810.44;5111334;28;20478;-43
2022/09/25 11:51:45;;;;;;;4.47;3.50;;;;;;;28.41;23.09;99803.81;5112007;28;20039;-45
2022/09/25 11:54:57;;;;;;;35.10;27.33;;;;;;;28.16;23.92;99794.44;5112221;28;20495;-43
2022/09/25 11:58:09;;;;;;;5.17;3.27;;;;;;;28.53;24.38;99798.53;5110610;28;20139;-43
2022/09/25 12:00:54;;;;;;;5.88;3.35;;;;;;;29.10;23.68;99783.78;5110718;28;20055;-41
2022/09/25 12:03:27;;;;;;;4.00;2.90;;;;;;;29.55;23.19;99786.06;5111257;28;20025;-44
2022/09/25 12:06:14;;;;;;;3.63;2.90;;;;;;;30.26;21.96;99781.00;5110754;27;20110;-45